createdAt,value
2018-03-29T00:01:47.968Z,98830.99
2018-03-29T00:04:15.426Z,98841.00
2018-03-29T00:06:42.814Z,98840.73
2018-03-29T00:09:10.236Z,98840.84
2018-03-29T00:11:37.718Z,98840.66
2018-03-29T00:14:05.122Z,98849.84
2018-03-29T00:16:32.499Z,98858.74
2018-03-29T00:18:59.898Z,98864.11
2018-03-29T00:21:27.286Z,98865.00
2018-03-29T00:23:54.685Z,98871.34
2018-03-29T00:26:22.144Z,98882.95
2018-03-29T00:28:49.547Z,98892.55
2018-03-29T00:31:16.935Z,98894.77
2018-03-29T00:33:44.419Z,98906.77
2018-03-29T00:36:11.878Z,98904.57
2018-03-29T00:38:39.638Z,98907.67
2018-03-29T00:41:07.025Z,98908.25
2018-03-29T00:43:34.451Z,98918.52
2018-03-29T00:46:01.847Z,98929.08
2018-03-29T00:48:29.239Z,98935.19
2018-03-29T00:50:56.633Z,98940.78
2018-03-29T00:53:35.847Z,98950.13
2018-03-29T00:56:03.234Z,98949.09
2018-03-29T00:58:31.547Z,98953.89
2018-03-29T01:00:58.939Z,98958.53
2018-03-29T01:03:26.356Z,98969.19
2018-03-29T01:05:53.747Z,98969.00
2018-03-29T01:08:21.127Z,98970.35
2018-03-29T01:10:48.525Z,98973.44
2018-03-29T01:13:15.914Z,98989.53
2018-03-29T01:15:43.301Z,98992.02
2018-03-29T01:18:10.697Z,98988.59
2018-03-29T01:20:38.179Z,99001.59
2018-03-29T01:23:05.566Z,99002.67
2018-03-29T01:25:32.987Z,99015.41
2018-03-29T01:28:00.375Z,99015.78
2018-03-29T01:30:27.797Z,99020.28
2018-03-29T01:32:55.184Z,99036.28
2018-03-29T01:35:22.615Z,99043.50
2018-03-29T01:37:50.081Z,99038.54
2018-03-29T01:40:17.463Z,99050.33
2018-03-29T01:42:44.990Z,99045.93
2018-03-29T01:45:12.407Z,99054.92
2018-03-29T01:47:39.790Z,99051.08
2018-03-29T01:50:07.182Z,99050.85
2018-03-29T01:52:34.563Z,99063.28
2018-03-29T01:55:01.955Z,99061.26
2018-03-29T01:57:29.344Z,99064.47
2018-03-29T01:59:56.732Z,99069.85
2018-03-29T02:02:24.123Z,99077.55
2018-03-29T02:04:51.610Z,99081.64
2018-03-29T02:07:18.998Z,99083.34
2018-03-29T02:09:46.433Z,99092.94
2018-03-29T02:12:13.823Z,99093.67
2018-03-29T02:14:41.231Z,99094.42
2018-03-29T02:17:08.687Z,99094.75
2018-03-29T02:19:36.079Z,99102.55
2018-03-29T02:22:03.512Z,99110.66
2018-03-29T02:24:30.970Z,99115.29
2018-03-29T02:26:58.406Z,99120.03
2018-03-29T02:29:25.794Z,99116.78
2018-03-29T02:31:53.192Z,99116.05
2018-03-29T02:34:20.570Z,99117.23
2018-03-29T02:36:48.035Z,99119.44
2018-03-29T02:39:15.410Z,99127.61
2018-03-29T02:41:42.813Z,99120.45
2018-03-29T02:44:10.295Z,99124.05
2018-03-29T02:46:37.693Z,99122.28
2018-03-29T02:49:05.108Z,99122.98
2018-03-29T02:51:32.504Z,99116.98
2018-03-29T02:53:59.888Z,99133.34
2018-03-29T02:56:27.268Z,99118.83
2018-03-29T02:58:54.747Z,99132.56
2018-03-29T03:01:22.176Z,99126.56
2018-03-29T03:03:49.560Z,99133.97
2018-03-29T03:06:16.954Z,99134.31
2018-03-29T03:11:14.395Z,99136.58
2018-03-29T03:13:41.786Z,99138.55
2018-03-29T03:16:09.423Z,99142.25
2018-03-29T03:18:36.899Z,99152.05
2018-03-29T03:21:04.274Z,99150.37
2018-03-29T03:23:31.658Z,99155.17
2018-03-29T03:25:59.063Z,99156.17
2018-03-29T03:28:26.519Z,99157.73
2018-03-29T03:30:53.920Z,99162.98
2018-03-29T03:33:21.335Z,99168.02
2018-03-29T03:35:48.702Z,99171.52
2018-03-29T03:38:16.091Z,99169.46
2018-03-29T03:40:43.487Z,99181.89
2018-03-29T03:43:10.874Z,99182.69
2018-03-29T03:45:39.020Z,99192.09
2018-03-29T03:48:06.414Z,99198.59
2018-03-29T03:50:33.798Z,99199.09
2018-03-29T03:53:01.185Z,99201.55
2018-03-29T03:55:28.558Z,99208.36
2018-03-29T03:57:55.946Z,99213.73
2018-03-29T04:00:23.352Z,99224.41
2018-03-29T04:02:50.729Z,99229.28
2018-03-29T04:05:18.163Z,99222.17
2018-03-29T04:07:45.617Z,99235.73
2018-03-29T04:10:13.020Z,99226.98
2018-03-29T04:12:40.418Z,99232.20
2018-03-29T04:15:07.799Z,99243.11
2018-03-29T04:17:35.190Z,99240.07
2018-03-29T04:20:02.590Z,99249.80
2018-03-29T04:22:29.979Z,99253.48
2018-03-29T04:24:57.358Z,99251.89
2018-03-29T04:27:24.846Z,99262.88
2018-03-29T04:29:52.301Z,99265.88
2018-03-29T04:32:20.590Z,99267.94
2018-03-29T04:34:48.046Z,99270.91
2018-03-29T04:37:15.421Z,99275.19
2018-03-29T04:39:42.839Z,99284.86
2018-03-29T04:42:10.222Z,99288.71
2018-03-29T04:44:37.602Z,99286.77
2018-03-29T04:47:04.980Z,99288.54
2018-03-29T04:49:32.358Z,99285.88
2018-03-29T04:51:59.737Z,99295.48
2018-03-29T04:54:27.198Z,99296.95
2018-03-29T04:56:54.646Z,99298.92
2018-03-29T04:59:22.102Z,99307.53
2018-03-29T05:01:49.563Z,99304.09
2018-03-29T05:04:16.953Z,99314.05
2018-03-29T05:06:44.326Z,99318.31
2018-03-29T05:09:11.722Z,99330.00
2018-03-29T05:11:39.101Z,99319.14
2018-03-29T05:14:06.546Z,99332.91
2018-03-29T05:16:34.000Z,99336.00
2018-03-29T05:19:01.455Z,99333.02
2018-03-29T05:21:28.921Z,99339.66
2018-03-29T05:23:56.341Z,99342.82
2018-03-29T05:26:23.931Z,99344.47
2018-03-29T05:28:51.406Z,99349.94
2018-03-29T05:31:18.806Z,99346.97
2018-03-29T05:33:46.219Z,99356.77
2018-03-29T05:36:13.675Z,99360.19
2018-03-29T05:38:41.066Z,99363.59
2018-03-29T05:41:08.453Z,99359.63
2018-03-29T05:43:35.831Z,99380.34
2018-03-29T05:46:03.222Z,99375.71
2018-03-29T05:48:30.606Z,99380.52
2018-03-29T05:50:58.007Z,99376.06
2018-03-29T05:53:25.394Z,99384.48
2018-03-29T05:55:52.814Z,99379.86
2018-03-29T05:58:20.202Z,99386.44
2018-03-29T06:00:47.597Z,99396.19
2018-03-29T06:03:14.992Z,99397.19
2018-03-29T06:05:42.439Z,99397.38
2018-03-29T06:08:09.822Z,99406.59
2018-03-29T06:10:37.242Z,99410.02
2018-03-29T06:13:04.626Z,99414.95
2018-03-29T06:15:32.790Z,99412.67
2018-03-29T06:18:01.074Z,99417.13
2018-03-29T06:20:28.450Z,99427.74
2018-03-29T06:22:55.858Z,99430.66
2018-03-29T06:25:23.246Z,99433.95
2018-03-29T06:27:50.639Z,99428.73
2018-03-29T06:30:18.028Z,99439.08
2018-03-29T06:32:45.419Z,99434.59
2018-03-29T06:35:12.835Z,99437.64
2018-03-29T06:37:40.223Z,99443.48
2018-03-29T06:40:07.616Z,99444.77
2018-03-29T06:42:34.999Z,99458.80
2018-03-29T06:45:02.380Z,99450.32
2018-03-29T06:47:29.763Z,99457.42
2018-03-29T06:49:57.162Z,99455.05
2018-03-29T06:52:24.566Z,99459.50
2018-03-29T06:54:51.967Z,99462.22
2018-03-29T06:57:19.431Z,99471.54
2018-03-29T06:59:46.812Z,99473.38
2018-03-29T07:02:14.257Z,99471.17
2018-03-29T07:04:41.692Z,99472.55
2018-03-29T07:07:09.152Z,99479.89
2018-03-29T07:09:36.527Z,99479.22
2018-03-29T07:12:03.925Z,99485.07
2018-03-29T07:14:31.300Z,99483.36
2018-03-29T07:16:58.771Z,99480.69
2018-03-29T07:19:26.234Z,99486.09
2018-03-29T07:21:53.678Z,99478.89
2018-03-29T07:24:21.055Z,99479.50
2018-03-29T07:26:48.459Z,99479.56
2018-03-29T07:29:15.835Z,99495.59
2018-03-29T07:31:43.222Z,99492.97
2018-03-29T07:34:10.633Z,99495.08
2018-03-29T07:36:38.057Z,99511.64
2018-03-29T07:39:05.398Z,99510.28
2018-03-29T07:41:32.826Z,99514.16
2018-03-29T07:44:00.282Z,99509.52
2018-03-29T07:46:27.666Z,99512.05
2018-03-29T07:48:55.056Z,99507.59
2018-03-29T07:51:22.432Z,99512.53
2018-03-29T07:53:49.822Z,99518.33
2018-03-29T07:56:17.211Z,99524.06
2018-03-29T07:58:44.598Z,99517.42
2018-03-29T08:01:12.066Z,99523.77
2018-03-29T08:03:39.454Z,99530.05
2018-03-29T08:06:06.880Z,99530.47
2018-03-29T08:08:34.229Z,99531.20
2018-03-29T08:11:01.619Z,99529.95
2018-03-29T08:13:29.034Z,99537.86
2018-03-29T08:15:56.416Z,99538.09
2018-03-29T08:18:23.798Z,99539.41
2018-03-29T08:20:51.210Z,99540.39
2018-03-29T08:23:18.592Z,99539.73
2018-03-29T08:25:45.970Z,99538.63
2018-03-29T08:28:13.358Z,99539.93
2018-03-29T08:30:40.828Z,99545.72
2018-03-29T08:33:08.241Z,99545.03
2018-03-29T08:35:35.641Z,99541.40
2018-03-29T08:38:03.099Z,99543.05
2018-03-29T08:40:30.490Z,99546.58
2018-03-29T08:42:57.922Z,99536.91
2018-03-29T08:45:25.307Z,99544.77
2018-03-29T08:47:52.863Z,99547.24
2018-03-29T08:50:20.310Z,99548.09
2018-03-29T08:52:47.730Z,99548.88
2018-03-29T08:55:15.118Z,99546.55
2018-03-29T08:57:42.507Z,99542.81
2018-03-29T09:00:09.902Z,99550.39
2018-03-29T09:02:37.274Z,99554.78
2018-03-29T09:05:04.659Z,99551.39
2018-03-29T09:07:32.067Z,99545.70
2018-03-29T09:09:59.454Z,99552.80
2018-03-29T09:12:26.832Z,99557.97
2018-03-29T09:14:54.214Z,99559.90
2018-03-29T09:17:21.683Z,99562.95
2018-03-29T09:19:49.094Z,99564.29
2018-03-29T09:22:16.471Z,99564.28
2018-03-29T09:24:43.954Z,99576.67
2018-03-29T09:27:11.336Z,99582.61
2018-03-29T09:29:38.759Z,99584.98
2018-03-29T09:32:06.218Z,99582.05
2018-03-29T09:34:33.675Z,99586.86
2018-03-29T09:37:01.126Z,99585.52
2018-03-29T09:39:28.587Z,99591.67
2018-03-29T09:41:56.039Z,99598.04
2018-03-29T09:44:23.418Z,99588.55
2018-03-29T09:46:50.807Z,99595.60
2018-03-29T09:49:18.182Z,99595.84
2018-03-29T09:51:45.570Z,99589.80
2018-03-29T09:54:13.026Z,99601.75
2018-03-29T09:56:40.410Z,99606.32
2018-03-29T09:59:08.690Z,99603.53
2018-03-29T10:01:36.092Z,99608.47
2018-03-29T10:04:09.177Z,99611.88
2018-03-29T10:06:41.504Z,99611.83
2018-03-29T10:09:08.887Z,99626.11
2018-03-29T10:11:36.278Z,99618.67
2018-03-29T10:14:03.654Z,99625.42
2018-03-29T10:16:31.039Z,99621.03
2018-03-29T10:18:58.427Z,99632.32
2018-03-29T10:21:25.835Z,99616.96
2018-03-29T10:23:53.215Z,99628.49
2018-03-29T10:26:20.599Z,99632.27
2018-03-29T10:28:47.978Z,99626.30
2018-03-29T10:31:15.391Z,99633.80
2018-03-29T10:33:42.775Z,99636.59
2018-03-29T10:36:10.164Z,99639.50
2018-03-29T10:38:37.599Z,99640.81
2018-03-29T10:41:04.970Z,99641.42
2018-03-29T10:43:32.358Z,99645.92
2018-03-29T10:45:59.747Z,99646.25
2018-03-29T10:48:27.157Z,99645.95
2018-03-29T10:50:54.522Z,99633.09
2018-03-29T10:53:21.914Z,99647.66
2018-03-29T10:55:49.371Z,99647.75
2018-03-29T10:58:16.763Z,99640.52
2018-03-29T11:00:44.142Z,99641.37
2018-03-29T11:03:11.646Z,99649.67
2018-03-29T11:05:38.987Z,99658.80
2018-03-29T11:08:06.375Z,99660.45
2018-03-29T11:10:33.754Z,99669.54
2018-03-29T11:13:01.140Z,99670.98
2018-03-29T11:15:28.614Z,99665.48
2018-03-29T11:17:56.011Z,99661.30
2018-03-29T11:20:23.422Z,99661.81
2018-03-29T11:22:50.794Z,99663.92
2018-03-29T11:25:18.239Z,99666.28
2018-03-29T11:27:45.618Z,99672.86
2018-03-29T11:30:13.008Z,99668.66
2018-03-29T11:32:40.383Z,99663.75
2018-03-29T11:35:07.854Z,99668.41
2018-03-29T11:37:35.240Z,99678.63
2018-03-29T11:40:02.687Z,99687.48
2018-03-29T11:42:30.063Z,99689.08
2018-03-29T11:44:57.456Z,99680.00
2018-03-29T11:47:24.834Z,99682.06
2018-03-29T11:49:52.237Z,99679.08
2018-03-29T11:52:19.606Z,99680.75
2018-03-29T11:54:47.007Z,99673.99
2018-03-29T11:57:14.423Z,99673.57
2018-03-29T11:59:41.977Z,99675.84
2018-03-29T12:02:09.363Z,99678.40
2018-03-29T12:04:36.751Z,99674.00
2018-03-29T12:07:04.126Z,99675.45
2018-03-29T12:09:31.516Z,99689.22
2018-03-29T12:11:58.955Z,99676.27
2018-03-29T12:14:26.338Z,99683.79
2018-03-29T12:16:53.710Z,99692.18
2018-03-29T12:19:21.120Z,99683.83
2018-03-29T12:21:48.498Z,99688.87
2018-03-29T12:24:15.890Z,99685.98
2018-03-29T12:26:43.281Z,99683.44
2018-03-29T12:29:10.662Z,99686.88
2018-03-29T12:31:38.097Z,99683.83
2018-03-29T12:34:05.478Z,99677.20
2018-03-29T12:36:32.874Z,99678.70
2018-03-29T12:39:00.366Z,99674.16
2018-03-29T12:41:27.763Z,99675.86
2018-03-29T12:43:55.175Z,99666.22
2018-03-29T12:46:22.574Z,99674.91
2018-03-29T12:48:49.952Z,99672.28
2018-03-29T12:51:17.452Z,99667.83
2018-03-29T12:53:44.846Z,99664.05
2018-03-29T12:56:22.082Z,99659.98
2018-03-29T12:58:49.462Z,99662.56
2018-03-29T13:01:16.922Z,99666.94
2018-03-29T13:03:44.302Z,99664.94
2018-03-29T13:06:11.703Z,99676.70
2018-03-29T13:08:39.083Z,99673.23
2018-03-29T13:11:06.466Z,99665.69
2018-03-29T13:13:33.851Z,99661.70
2018-03-29T13:16:01.244Z,99666.20
2018-03-29T13:18:28.685Z,99659.22
2018-03-29T13:20:56.134Z,99660.22
2018-03-29T13:23:23.599Z,99665.76
2018-03-29T13:25:50.995Z,99669.69
2018-03-29T13:28:18.410Z,99675.45
2018-03-29T13:30:45.803Z,99660.27
2018-03-29T13:33:13.186Z,99678.36
2018-03-29T13:35:40.587Z,99681.80
2018-03-29T13:38:07.963Z,99687.10
2018-03-29T13:40:35.345Z,99689.34
2018-03-29T13:43:02.838Z,99687.55
2018-03-29T13:45:30.227Z,99682.74
2018-03-29T13:47:57.627Z,99687.96
2018-03-29T13:50:25.107Z,99685.75
2018-03-29T13:52:52.512Z,99690.09
2018-03-29T13:55:19.893Z,99685.44
2018-03-29T13:57:47.279Z,99690.84
2018-03-29T14:00:14.671Z,99688.05
2018-03-29T14:02:42.064Z,99686.34
2018-03-29T14:05:09.542Z,99694.34
2018-03-29T14:07:36.934Z,99692.47
2018-03-29T14:10:04.310Z,99692.17
2018-03-29T14:12:31.805Z,99692.28
2018-03-29T14:14:59.183Z,99688.96
2018-03-29T14:17:26.639Z,99692.97
2018-03-29T14:19:54.079Z,99697.16
2018-03-29T14:22:21.500Z,99690.69
2018-03-29T14:24:48.891Z,99689.41
2018-03-29T14:27:16.274Z,99694.89
2018-03-29T14:29:43.707Z,99690.84
2018-03-29T14:32:11.091Z,99698.45
2018-03-29T14:34:38.483Z,99697.68
2018-03-29T14:37:05.883Z,99696.02
2018-03-29T14:39:33.322Z,99693.27
2018-03-29T14:42:00.783Z,99697.89
2018-03-29T14:44:28.174Z,99706.16
2018-03-29T14:46:55.574Z,99701.06
2018-03-29T14:49:22.951Z,99700.61
2018-03-29T14:51:50.419Z,99704.08
2018-03-29T14:54:17.854Z,99705.71
2018-03-29T14:56:46.249Z,99711.23
2018-03-29T14:59:13.691Z,99707.53
2018-03-29T15:01:41.067Z,99712.58
2018-03-29T15:04:08.451Z,99716.38
2018-03-29T15:06:35.830Z,99722.47
2018-03-29T15:09:03.214Z,99723.15
2018-03-29T15:11:30.605Z,99727.02
2018-03-29T15:13:58.068Z,99721.03
2018-03-29T15:16:25.487Z,99729.39
2018-03-29T15:18:52.870Z,99723.75
2018-03-29T15:21:20.294Z,99727.04
2018-03-29T15:23:47.686Z,99727.20
2018-03-29T15:26:15.082Z,99735.52
2018-03-29T15:28:42.562Z,99733.63
2018-03-29T15:31:09.951Z,99732.41
2018-03-29T15:33:37.341Z,99737.81
2018-03-29T15:36:04.721Z,99735.70
2018-03-29T15:38:32.102Z,99730.55
2018-03-29T15:40:59.491Z,99731.73
2018-03-29T15:43:26.870Z,99723.12
2018-03-29T15:45:54.264Z,99729.23
2018-03-29T15:48:21.663Z,99730.22
2018-03-29T15:50:49.081Z,99725.39
2018-03-29T15:53:16.426Z,99728.82
2018-03-29T15:55:43.831Z,99727.59
2018-03-29T15:58:11.215Z,99729.91
2018-03-29T16:00:38.611Z,99732.28
2018-03-29T16:03:05.992Z,99736.36
2018-03-29T16:05:33.367Z,99741.98
2018-03-29T16:08:00.759Z,99746.52
2018-03-29T16:10:28.155Z,99752.02
2018-03-29T16:12:55.572Z,99754.84
2018-03-29T16:15:22.920Z,99752.23
2018-03-29T16:17:50.315Z,99762.22
2018-03-29T16:20:17.801Z,99772.39
2018-03-29T16:22:45.178Z,99779.70
2018-03-29T16:25:12.595Z,99773.94
2018-03-29T16:27:39.988Z,99780.73
2018-03-29T16:30:07.360Z,99789.84
2018-03-29T16:32:34.755Z,99800.41
2018-03-29T16:35:02.147Z,99813.02
2018-03-29T16:37:29.532Z,99807.02
2018-03-29T16:39:56.910Z,99810.84
2018-03-29T16:42:24.296Z,99819.91
2018-03-29T16:44:51.731Z,99806.78
2018-03-29T16:47:19.119Z,99800.14
2018-03-29T16:49:46.494Z,99806.88
2018-03-29T16:52:14.110Z,99800.55
2018-03-29T16:54:41.554Z,99795.94
2018-03-29T16:57:08.939Z,99802.23
2018-03-29T16:59:36.314Z,99813.29
2018-03-29T17:02:03.741Z,99801.80
2018-03-29T17:04:31.080Z,99809.33
2018-03-29T17:06:58.460Z,99815.03
2018-03-29T17:09:25.843Z,99815.20
2018-03-29T17:11:53.227Z,99818.19
2018-03-29T17:14:20.609Z,99818.55
2018-03-29T17:16:48.044Z,99821.17
2018-03-29T17:19:15.410Z,99830.75
2018-03-29T17:21:42.866Z,99829.44
2018-03-29T17:24:10.251Z,99825.76
2018-03-29T17:26:37.678Z,99831.91
2018-03-29T17:29:05.066Z,99836.89
2018-03-29T17:31:32.486Z,99839.83
2018-03-29T17:33:59.875Z,99837.41
2018-03-29T17:36:27.298Z,99829.69
2018-03-29T17:38:54.687Z,99832.09
2018-03-29T17:41:22.063Z,99844.71
2018-03-29T17:43:49.458Z,99845.38
2018-03-29T17:46:16.835Z,99849.25
2018-03-29T17:48:44.211Z,99846.34
2018-03-29T17:51:11.594Z,99859.05
2018-03-29T17:53:38.970Z,99864.31
2018-03-29T17:56:06.369Z,99862.95
2018-03-29T17:58:33.753Z,99864.05
2018-03-29T18:01:01.247Z,99870.36
2018-03-29T18:03:28.639Z,99871.20
2018-03-29T18:05:56.048Z,99870.20
2018-03-29T18:08:23.426Z,99876.77
2018-03-29T18:10:50.813Z,99881.47
2018-03-29T18:13:18.194Z,99888.22
2018-03-29T18:15:45.594Z,99899.94
2018-03-29T18:18:12.979Z,99898.54
2018-03-29T18:20:40.388Z,99909.59
2018-03-29T18:23:07.775Z,99909.93
2018-03-29T18:25:35.200Z,99917.88
2018-03-29T18:28:02.658Z,99909.87
2018-03-29T18:30:30.046Z,99910.87
2018-03-29T18:32:57.439Z,99915.02
2018-03-29T18:35:24.836Z,99922.63
2018-03-29T18:37:52.216Z,99916.33
2018-03-29T18:40:19.605Z,99921.11
2018-03-29T18:42:46.979Z,99925.39
2018-03-29T18:45:14.382Z,99926.70
2018-03-29T18:47:41.811Z,99922.30
2018-03-29T18:50:09.199Z,99926.70
2018-03-29T18:52:36.587Z,99919.12
2018-03-29T18:55:04.064Z,99931.75
2018-03-29T18:57:31.519Z,99931.53
2018-03-29T18:59:58.898Z,99938.54
2018-03-29T19:02:26.292Z,99940.22
2018-03-29T19:04:53.666Z,99940.87
2018-03-29T19:07:21.142Z,99945.89
2018-03-29T19:09:48.607Z,99945.87
2018-03-29T19:12:16.063Z,99953.53
2018-03-29T19:14:43.518Z,99951.68
2018-03-29T19:17:10.903Z,99962.67
2018-03-29T19:19:38.284Z,99965.17
2018-03-29T19:22:05.783Z,99970.94
2018-03-29T19:24:33.166Z,99974.59
2018-03-29T19:27:00.559Z,99975.64
2018-03-29T19:29:27.941Z,99978.31
2018-03-29T19:31:55.355Z,99983.55
2018-03-29T19:34:22.746Z,99979.89
2018-03-29T19:36:50.141Z,99985.98
2018-03-29T19:39:17.514Z,99988.18
2018-03-29T19:41:44.910Z,99987.52
2018-03-29T19:44:12.282Z,99991.98
2018-03-29T19:46:39.689Z,99995.45
2018-03-29T19:49:07.076Z,99996.94
2018-03-29T19:51:34.473Z,100005.94
2018-03-29T19:54:01.959Z,100004.62
2018-03-29T19:56:29.349Z,100009.45
2018-03-29T19:58:56.772Z,100010.48
2018-03-29T20:01:24.154Z,100013.06
2018-03-29T20:03:51.563Z,100011.85
2018-03-29T20:06:18.948Z,100015.07
2018-03-29T20:08:46.359Z,100016.09
2018-03-29T20:11:13.752Z,100006.59
2018-03-29T20:13:41.155Z,100008.28
2018-03-29T20:16:08.546Z,100008.34
2018-03-29T20:18:35.965Z,100005.05
2018-03-29T20:21:03.358Z,100009.77
2018-03-29T20:23:30.770Z,100016.31
2018-03-29T20:25:58.166Z,100013.22
2018-03-29T20:28:25.582Z,100013.52
2018-03-29T20:30:53.044Z,100017.31
2018-03-29T20:33:20.442Z,100013.80
2018-03-29T20:35:47.831Z,100012.52
2018-03-29T20:38:15.234Z,100015.94
2018-03-29T20:40:42.680Z,100021.05
2018-03-29T20:43:10.067Z,100020.20
2018-03-29T20:45:37.475Z,100022.88
2018-03-29T20:48:04.990Z,100023.86
2018-03-29T20:50:32.377Z,100027.06
2018-03-29T20:52:59.794Z,100021.31
2018-03-29T20:55:27.252Z,100023.48
2018-03-29T20:57:54.655Z,100021.72
2018-03-29T21:00:22.042Z,100021.21
2018-03-29T21:02:49.442Z,100017.38
2018-03-29T21:05:16.830Z,100027.65
2018-03-29T21:07:44.223Z,100031.10
2018-03-29T21:10:11.623Z,100034.05
2018-03-29T21:12:40.122Z,100028.44
2018-03-29T21:15:07.521Z,100029.64
2018-03-29T21:17:34.987Z,100030.44
2018-03-29T21:20:02.397Z,100024.95
2018-03-29T21:22:29.885Z,100035.77
2018-03-29T21:24:57.737Z,100038.19
2018-03-29T21:27:25.379Z,100036.97
2018-03-29T21:29:52.867Z,100043.51
2018-03-29T21:32:20.323Z,100049.01
2018-03-29T21:34:47.722Z,100050.99
2018-03-29T21:37:15.144Z,100052.03
2018-03-29T21:39:42.596Z,100043.65
2018-03-29T21:42:10.042Z,100045.59
2018-03-29T21:44:37.439Z,100048.73
2018-03-29T21:47:04.839Z,100041.89
2018-03-29T21:49:32.248Z,100037.26
2018-03-29T21:51:59.643Z,100042.53
2018-03-29T21:54:27.044Z,100042.12
2018-03-29T21:56:54.441Z,100049.03
2018-03-29T21:59:21.878Z,100054.19
2018-03-29T22:01:49.280Z,100054.23
2018-03-29T22:04:16.674Z,100049.80
2018-03-29T22:06:44.147Z,100041.45
2018-03-29T22:09:11.541Z,100042.19
2018-03-29T22:11:38.972Z,100045.95
2018-03-29T22:14:06.364Z,100043.31
2018-03-29T22:16:33.763Z,100055.86
2018-03-29T22:19:01.159Z,100055.22
2018-03-29T22:21:28.555Z,100052.09
2018-03-29T22:23:55.942Z,100059.33
2018-03-29T22:26:23.390Z,100057.56
2018-03-29T22:28:50.745Z,100055.22
2018-03-29T22:31:18.140Z,100060.31
2018-03-29T22:33:45.535Z,100052.06
2018-03-29T22:36:13.029Z,100046.20
2018-03-29T22:38:40.487Z,100048.58
2018-03-29T22:41:07.890Z,100055.01
2018-03-29T22:43:35.291Z,100056.50
2018-03-29T22:46:02.700Z,100060.41
2018-03-29T22:48:30.101Z,100054.77
2018-03-29T22:50:57.508Z,100055.20
2018-03-29T22:53:24.903Z,100063.73
2018-03-29T22:55:52.356Z,100059.58
2018-03-29T22:58:19.751Z,100064.15
2018-03-29T23:00:47.156Z,100066.80
2018-03-29T23:03:14.655Z,100065.41
2018-03-29T23:05:42.054Z,100062.30
2018-03-29T23:08:09.451Z,100063.68
2018-03-29T23:10:36.866Z,100064.39
2018-03-29T23:13:04.268Z,100071.13
2018-03-29T23:15:31.707Z,100067.31
2018-03-29T23:17:59.103Z,100070.13
2018-03-29T23:20:26.506Z,100072.57
2018-03-29T23:22:53.909Z,100069.97
2018-03-29T23:25:21.419Z,100070.42
2018-03-29T23:27:48.867Z,100070.97
2018-03-29T23:30:16.284Z,100078.66
2018-03-29T23:32:43.718Z,100085.45
2018-03-29T23:35:11.150Z,100088.73
2018-03-29T23:37:38.544Z,100090.37
2018-03-29T23:40:05.937Z,100090.06
2018-03-29T23:42:33.342Z,100086.66
2018-03-29T23:45:01.678Z,100087.25
2018-03-29T23:47:29.066Z,100088.25
2018-03-29T23:49:56.462Z,100087.50
2018-03-29T23:52:23.863Z,100091.66
2018-03-29T23:54:51.254Z,100092.00
2018-03-29T23:57:18.655Z,100098.02
2018-03-29T23:59:46.055Z,100093.26
